sensor_id;sensor_type;location;lat;lon;timestamp;temperature;humidity
25640;DHT22;13497;48.322;16.204;2022-12-07T00:01:07;5.50;99.90
25640;DHT22;13497;48.322;16.204;2022-12-07T00:03:33;5.50;99.90
25640;DHT22;13497;48.322;16.204;2022-12-07T00:05:59;5.50;99.90
25640;DHT22;13497;48.322;16.204;2022-12-07T00:08:25;5.50;99.90
25640;DHT22;13497;48.322;16.204;2022-12-07T00:10:51;5.40;99.90
25640;DHT22;13497;48.322;16.204;2022-12-07T00:13:17;5.40;99.90
25640;DHT22;13497;48.322;16.204;2022-12-07T00:15:42;5.40;99.90
25640;DHT22;13497;48.322;16.204;2022-12-07T00:18:08;5.40;99.90
25640;DHT22;13497;48.322;16.204;2022-12-07T00:20:34;5.40;99.90
25640;DHT22;13497;48.322;16.204;2022-12-07T00:22:59;5.30;99.90
25640;DHT22;13497;48.322;16.204;2022-12-07T00:25:25;5.30;99.90
25640;DHT22;13497;48.322;16.204;2022-12-07T00:27:53;5.30;99.90
25640;DHT22;13497;48.322;16.204;2022-12-07T00:30:21;5.30;99.90
25640;DHT22;13497;48.322;16.204;2022-12-07T00:32:46;5.30;99.90
25640;DHT22;13497;48.322;16.204;2022-12-07T00:35:12;5.30;99.90
25640;DHT22;13497;48.322;16.204;2022-12-07T00:37:38;5.30;99.90
25640;DHT22;13497;48.322;16.204;2022-12-07T00:40:05;5.30;99.90
25640;DHT22;13497;48.322;16.204;2022-12-07T00:42:30;5.30;99.90
25640;DHT22;13497;48.322;16.204;2022-12-07T00:44:56;5.30;99.90
25640;DHT22;13497;48.322;16.204;2022-12-07T00:47:21;5.30;99.90
25640;DHT22;13497;48.322;16.204;2022-12-07T00:49:47;5.30;99.90
25640;DHT22;13497;48.322;16.204;2022-12-07T00:52:13;5.30;99.90
25640;DHT22;13497;48.322;16.204;2022-12-07T00:54:39;5.20;99.90
25640;DHT22;13497;48.322;16.204;2022-12-07T00:57:05;5.20;99.90
25640;DHT22;13497;48.322;16.204;2022-12-07T00:59:30;5.30;99.90
25640;DHT22;13497;48.322;16.204;2022-12-07T01:01:56;5.30;99.90
25640;DHT22;13497;48.322;16.204;2022-12-07T01:04:22;5.30;99.90
25640;DHT22;13497;48.322;16.204;2022-12-07T01:06:47;5.30;99.90
25640;DHT22;13497;48.322;16.204;2022-12-07T01:09:13;5.30;99.90
25640;DHT22;13497;48.322;16.204;2022-12-07T01:11:39;5.30;99.90
25640;DHT22;13497;48.322;16.204;2022-12-07T01:14:04;5.30;99.90
25640;DHT22;13497;48.322;16.204;2022-12-07T01:16:31;5.30;99.90
25640;DHT22;13497;48.322;16.204;2022-12-07T01:18:57;5.30;99.90
25640;DHT22;13497;48.322;16.204;2022-12-07T01:21:29;5.30;99.90
25640;DHT22;13497;48.322;16.204;2022-12-07T01:23:57;5.30;99.90
25640;DHT22;13497;48.322;16.204;2022-12-07T01:26:24;5.30;99.90
25640;DHT22;13497;48.322;16.204;2022-12-07T01:28:50;5.30;99.90
25640;DHT22;13497;48.322;16.204;2022-12-07T01:31:19;5.30;99.90
25640;DHT22;13497;48.322;16.204;2022-12-07T01:33:47;5.30;99.90
25640;DHT22;13497;48.322;16.204;2022-12-07T01:38:39;5.30;99.90
25640;DHT22;13497;48.322;16.204;2022-12-07T01:41:05;5.30;99.90
25640;DHT22;13497;48.322;16.204;2022-12-07T01:43:32;5.30;99.90
25640;DHT22;13497;48.322;16.204;2022-12-07T01:45:59;5.30;99.90
25640;DHT22;13497;48.322;16.204;2022-12-07T01:48:34;5.30;99.90
25640;DHT22;13497;48.322;16.204;2022-12-07T01:51:06;5.30;99.90
25640;DHT22;13497;48.322;16.204;2022-12-07T01:53:35;5.30;99.90
25640;DHT22;13497;48.322;16.204;2022-12-07T01:56:02;5.20;99.90
25640;DHT22;13497;48.322;16.204;2022-12-07T01:58:28;5.20;99.90
25640;DHT22;13497;48.322;16.204;2022-12-07T02:00:54;5.10;99.90
25640;DHT22;13497;48.322;16.204;2022-12-07T02:03:27;5.20;99.90
25640;DHT22;13497;48.322;16.204;2022-12-07T02:05:56;5.20;99.90
25640;DHT22;13497;48.322;16.204;2022-12-07T02:08:22;5.30;99.90
25640;DHT22;13497;48.322;16.204;2022-12-07T02:10:48;5.20;99.90
25640;DHT22;13497;48.322;16.204;2022-12-07T02:13:23;5.30;99.90
25640;DHT22;13497;48.322;16.204;2022-12-07T02:21:58;5.20;99.90
25640;DHT22;13497;48.322;16.204;2022-12-07T02:27:32;5.20;99.90
25640;DHT22;13497;48.322;16.204;2022-12-07T02:30:10;5.20;99.90
25640;DHT22;13497;48.322;16.204;2022-12-07T02:33:05;5.20;99.90
25640;DHT22;13497;48.322;16.204;2022-12-07T02:35:42;5.20;99.90
25640;DHT22;13497;48.322;16.204;2022-12-07T02:43:46;5.10;99.90
25640;DHT22;13497;48.322;16.204;2022-12-07T02:46:26;5.10;99.90
25640;DHT22;13497;48.322;16.204;2022-12-07T02:48:53;5.10;99.90
25640;DHT22;13497;48.322;16.204;2022-12-07T02:51:21;5.10;99.90
25640;DHT22;13497;48.322;16.204;2022-12-07T02:53:47;5.10;99.90
25640;DHT22;13497;48.322;16.204;2022-12-07T03:01:45;5.10;99.90
25640;DHT22;13497;48.322;16.204;2022-12-07T03:07:05;5.10;99.90
25640;DHT22;13497;48.322;16.204;2022-12-07T03:09:45;5.10;99.90
25640;DHT22;13497;48.322;16.204;2022-12-07T03:12:27;5.10;99.90
25640;DHT22;13497;48.322;16.204;2022-12-07T03:15:10;5.10;99.90
25640;DHT22;13497;48.322;16.204;2022-12-07T03:17:39;5.10;99.90
25640;DHT22;13497;48.322;16.204;2022-12-07T03:20:10;5.10;99.90
25640;DHT22;13497;48.322;16.204;2022-12-07T03:22:38;5.00;99.90
25640;DHT22;13497;48.322;16.204;2022-12-07T03:25:10;5.00;99.90
25640;DHT22;13497;48.322;16.204;2022-12-07T03:27:41;5.00;99.90
25640;DHT22;13497;48.322;16.204;2022-12-07T03:30:17;5.10;99.90
25640;DHT22;13497;48.322;16.204;2022-12-07T03:35:16;5.00;99.90
25640;DHT22;13497;48.322;16.204;2022-12-07T03:37:51;5.10;99.90
25640;DHT22;13497;48.322;16.204;2022-12-07T03:41:01;5.00;99.90
25640;DHT22;13497;48.322;16.204;2022-12-07T03:43:28;5.00;99.90
25640;DHT22;13497;48.322;16.204;2022-12-07T03:48:54;5.00;99.90
25640;DHT22;13497;48.322;16.204;2022-12-07T03:54:26;4.90;99.90
25640;DHT22;13497;48.322;16.204;2022-12-07T03:56:54;4.90;99.90
25640;DHT22;13497;48.322;16.204;2022-12-07T03:59:21;4.90;99.90
25640;DHT22;13497;48.322;16.204;2022-12-07T04:01:56;4.90;99.90
25640;DHT22;13497;48.322;16.204;2022-12-07T04:04:23;4.80;99.90
25640;DHT22;13497;48.322;16.204;2022-12-07T04:06:50;4.80;99.90
25640;DHT22;13497;48.322;16.204;2022-12-07T04:09:15;4.80;99.90
25640;DHT22;13497;48.322;16.204;2022-12-07T04:11:42;4.80;99.90
25640;DHT22;13497;48.322;16.204;2022-12-07T04:14:08;4.80;99.90
25640;DHT22;13497;48.322;16.204;2022-12-07T04:16:54;4.80;99.90
25640;DHT22;13497;48.322;16.204;2022-12-07T04:19:27;4.80;99.90
25640;DHT22;13497;48.322;16.204;2022-12-07T04:21:54;4.90;99.90
25640;DHT22;13497;48.322;16.204;2022-12-07T04:24:20;4.90;99.90
25640;DHT22;13497;48.322;16.204;2022-12-07T04:26:46;4.90;99.90
25640;DHT22;13497;48.322;16.204;2022-12-07T04:29:13;4.90;99.90
25640;DHT22;13497;48.322;16.204;2022-12-07T04:31:39;4.80;99.90
25640;DHT22;13497;48.322;16.204;2022-12-07T04:34:05;4.80;99.90
25640;DHT22;13497;48.322;16.204;2022-12-07T04:36:31;4.80;99.90
25640;DHT22;13497;48.322;16.204;2022-12-07T04:38:57;4.80;99.90
25640;DHT22;13497;48.322;16.204;2022-12-07T04:41:24;4.80;99.90
25640;DHT22;13497;48.322;16.204;2022-12-07T04:43:57;4.80;99.90
25640;DHT22;13497;48.322;16.204;2022-12-07T04:46:24;4.80;99.90
25640;DHT22;13497;48.322;16.204;2022-12-07T04:48:50;4.80;99.90
25640;DHT22;13497;48.322;16.204;2022-12-07T04:51:20;4.80;99.90
25640;DHT22;13497;48.322;16.204;2022-12-07T04:53:46;4.90;99.90
25640;DHT22;13497;48.322;16.204;2022-12-07T04:56:11;4.90;99.90
25640;DHT22;13497;48.322;16.204;2022-12-07T04:58:37;4.90;99.90
25640;DHT22;13497;48.322;16.204;2022-12-07T05:01:03;5.00;99.90
25640;DHT22;13497;48.322;16.204;2022-12-07T05:03:28;5.00;99.90
25640;DHT22;13497;48.322;16.204;2022-12-07T05:05:54;5.00;99.90
25640;DHT22;13497;48.322;16.204;2022-12-07T05:08:20;5.00;99.90
25640;DHT22;13497;48.322;16.204;2022-12-07T05:10:45;5.00;99.90
25640;DHT22;13497;48.322;16.204;2022-12-07T05:13:11;5.00;99.90
25640;DHT22;13497;48.322;16.204;2022-12-07T05:15:36;5.00;99.90
25640;DHT22;13497;48.322;16.204;2022-12-07T05:18:02;5.00;99.90
25640;DHT22;13497;48.322;16.204;2022-12-07T05:20:28;5.00;99.90
25640;DHT22;13497;48.322;16.204;2022-12-07T05:22:54;5.00;99.90
25640;DHT22;13497;48.322;16.204;2022-12-07T05:25:20;5.00;99.90
25640;DHT22;13497;48.322;16.204;2022-12-07T05:27:45;5.00;99.90
25640;DHT22;13497;48.322;16.204;2022-12-07T05:30:11;5.00;99.90
25640;DHT22;13497;48.322;16.204;2022-12-07T05:32:37;5.00;99.90
25640;DHT22;13497;48.322;16.204;2022-12-07T05:35:03;4.90;99.90
25640;DHT22;13497;48.322;16.204;2022-12-07T05:37:29;4.90;99.90
25640;DHT22;13497;48.322;16.204;2022-12-07T05:39:54;4.90;99.90
25640;DHT22;13497;48.322;16.204;2022-12-07T05:42:20;4.90;99.90
25640;DHT22;13497;48.322;16.204;2022-12-07T05:44:46;5.00;99.90
25640;DHT22;13497;48.322;16.204;2022-12-07T05:47:13;5.00;99.90
25640;DHT22;13497;48.322;16.204;2022-12-07T05:49:39;5.00;99.90
25640;DHT22;13497;48.322;16.204;2022-12-07T05:52:05;5.00;99.90
25640;DHT22;13497;48.322;16.204;2022-12-07T05:54:31;5.00;99.90
25640;DHT22;13497;48.322;16.204;2022-12-07T05:56:56;5.00;99.90
25640;DHT22;13497;48.322;16.204;2022-12-07T05:59:22;5.00;99.90
25640;DHT22;13497;48.322;16.204;2022-12-07T06:04:14;5.10;99.90
25640;DHT22;13497;48.322;16.204;2022-12-07T06:06:40;5.10;99.90
25640;DHT22;13497;48.322;16.204;2022-12-07T06:09:06;5.00;99.90
25640;DHT22;13497;48.322;16.204;2022-12-07T06:11:31;5.10;99.90
25640;DHT22;13497;48.322;16.204;2022-12-07T06:14:16;5.10;99.90
25640;DHT22;13497;48.322;16.204;2022-12-07T06:16:41;5.10;99.90
25640;DHT22;13497;48.322;16.204;2022-12-07T06:19:07;5.00;99.90
25640;DHT22;13497;48.322;16.204;2022-12-07T06:21:32;5.00;99.90
25640;DHT22;13497;48.322;16.204;2022-12-07T06:23:58;5.00;99.90
25640;DHT22;13497;48.322;16.204;2022-12-07T06:26:24;5.00;99.90
25640;DHT22;13497;48.322;16.204;2022-12-07T06:28:49;5.00;99.90
25640;DHT22;13497;48.322;16.204;2022-12-07T06:31:15;5.00;99.90
25640;DHT22;13497;48.322;16.204;2022-12-07T06:33:41;5.10;99.90
25640;DHT22;13497;48.322;16.204;2022-12-07T06:36:08;5.10;99.90
25640;DHT22;13497;48.322;16.204;2022-12-07T06:38:33;5.00;99.90
25640;DHT22;13497;48.322;16.204;2022-12-07T06:40:59;5.00;99.90
25640;DHT22;13497;48.322;16.204;2022-12-07T06:43:25;5.00;99.90
25640;DHT22;13497;48.322;16.204;2022-12-07T06:45:50;5.10;99.90
25640;DHT22;13497;48.322;16.204;2022-12-07T06:48:16;5.10;99.90
25640;DHT22;13497;48.322;16.204;2022-12-07T06:50:44;5.20;99.90
25640;DHT22;13497;48.322;16.204;2022-12-07T06:53:10;5.20;99.90
25640;DHT22;13497;48.322;16.204;2022-12-07T06:55:36;5.30;99.90
25640;DHT22;13497;48.322;16.204;2022-12-07T06:58:01;5.30;99.90
25640;DHT22;13497;48.322;16.204;2022-12-07T07:00:28;5.30;99.90
25640;DHT22;13497;48.322;16.204;2022-12-07T07:02:54;5.20;99.90
25640;DHT22;13497;48.322;16.204;2022-12-07T07:05:20;5.20;99.90
25640;DHT22;13497;48.322;16.204;2022-12-07T07:07:49;5.20;99.90
25640;DHT22;13497;48.322;16.204;2022-12-07T07:10:15;5.20;99.90
25640;DHT22;13497;48.322;16.204;2022-12-07T07:12:41;5.10;99.90
25640;DHT22;13497;48.322;16.204;2022-12-07T07:15:08;5.20;99.90
25640;DHT22;13497;48.322;16.204;2022-12-07T07:17:33;5.20;99.90
25640;DHT22;13497;48.322;16.204;2022-12-07T07:19:59;5.10;99.90
25640;DHT22;13497;48.322;16.204;2022-12-07T07:22:24;5.00;99.90
25640;DHT22;13497;48.322;16.204;2022-12-07T07:24:50;5.00;99.90
25640;DHT22;13497;48.322;16.204;2022-12-07T07:27:16;4.90;99.90
25640;DHT22;13497;48.322;16.204;2022-12-07T07:29:41;4.90;99.90
25640;DHT22;13497;48.322;16.204;2022-12-07T07:32:07;5.00;99.90
25640;DHT22;13497;48.322;16.204;2022-12-07T07:34:33;5.00;99.90
25640;DHT22;13497;48.322;16.204;2022-12-07T07:36:59;5.00;99.90
25640;DHT22;13497;48.322;16.204;2022-12-07T07:39:24;5.00;99.90
25640;DHT22;13497;48.322;16.204;2022-12-07T07:41:50;5.00;99.90
25640;DHT22;13497;48.322;16.204;2022-12-07T07:44:15;5.10;99.90
25640;DHT22;13497;48.322;16.204;2022-12-07T07:46:41;5.10;99.90
25640;DHT22;13497;48.322;16.204;2022-12-07T07:49:07;5.10;99.90
25640;DHT22;13497;48.322;16.204;2022-12-07T07:51:34;5.10;99.90
25640;DHT22;13497;48.322;16.204;2022-12-07T07:54:00;5.10;99.90
25640;DHT22;13497;48.322;16.204;2022-12-07T07:56:25;5.10;99.90
25640;DHT22;13497;48.322;16.204;2022-12-07T07:58:54;5.20;99.90
25640;DHT22;13497;48.322;16.204;2022-12-07T08:01:20;5.20;99.90
25640;DHT22;13497;48.322;16.204;2022-12-07T08:03:48;5.20;99.90
25640;DHT22;13497;48.322;16.204;2022-12-07T08:06:14;5.20;99.90
25640;DHT22;13497;48.322;16.204;2022-12-07T08:08:40;5.20;99.90
25640;DHT22;13497;48.322;16.204;2022-12-07T08:11:07;5.20;99.90
25640;DHT22;13497;48.322;16.204;2022-12-07T08:13:33;5.10;99.90
25640;DHT22;13497;48.322;16.204;2022-12-07T08:16:03;5.20;99.90
25640;DHT22;13497;48.322;16.204;2022-12-07T08:18:29;5.20;99.90
25640;DHT22;13497;48.322;16.204;2022-12-07T08:21:01;5.30;99.90
25640;DHT22;13497;48.322;16.204;2022-12-07T08:23:27;5.30;99.90
25640;DHT22;13497;48.322;16.204;2022-12-07T08:25:52;5.30;99.90
25640;DHT22;13497;48.322;16.204;2022-12-07T08:28:18;5.30;99.90
25640;DHT22;13497;48.322;16.204;2022-12-07T08:30:43;5.30;99.90
25640;DHT22;13497;48.322;16.204;2022-12-07T08:33:09;5.40;99.90
25640;DHT22;13497;48.322;16.204;2022-12-07T08:35:35;5.40;99.90
25640;DHT22;13497;48.322;16.204;2022-12-07T08:38:01;5.40;99.90
25640;DHT22;13497;48.322;16.204;2022-12-07T08:40:28;5.50;99.90
25640;DHT22;13497;48.322;16.204;2022-12-07T08:42:53;5.50;99.90
25640;DHT22;13497;48.322;16.204;2022-12-07T08:45:20;5.60;99.90
25640;DHT22;13497;48.322;16.204;2022-12-07T08:47:54;5.60;99.90
25640;DHT22;13497;48.322;16.204;2022-12-07T08:50:21;5.60;99.90
25640;DHT22;13497;48.322;16.204;2022-12-07T08:52:51;5.60;99.90
25640;DHT22;13497;48.322;16.204;2022-12-07T08:55:18;5.50;99.90
25640;DHT22;13497;48.322;16.204;2022-12-07T08:57:44;5.40;99.90
25640;DHT22;13497;48.322;16.204;2022-12-07T09:00:10;5.40;99.90
25640;DHT22;13497;48.322;16.204;2022-12-07T09:02:36;5.30;99.90
25640;DHT22;13497;48.322;16.204;2022-12-07T09:05:02;5.40;99.90
25640;DHT22;13497;48.322;16.204;2022-12-07T09:07:30;5.50;99.90
25640;DHT22;13497;48.322;16.204;2022-12-07T09:09:56;5.60;99.90
25640;DHT22;13497;48.322;16.204;2022-12-07T09:12:21;5.80;99.90
25640;DHT22;13497;48.322;16.204;2022-12-07T09:14:47;5.80;99.90
25640;DHT22;13497;48.322;16.204;2022-12-07T09:17:13;6.00;99.90
25640;DHT22;13497;48.322;16.204;2022-12-07T09:19:39;6.10;99.90
25640;DHT22;13497;48.322;16.204;2022-12-07T09:22:05;6.30;99.90
25640;DHT22;13497;48.322;16.204;2022-12-07T09:24:31;6.40;99.90
25640;DHT22;13497;48.322;16.204;2022-12-07T09:26:58;6.40;99.90
25640;DHT22;13497;48.322;16.204;2022-12-07T09:29:24;6.40;99.90
25640;DHT22;13497;48.322;16.204;2022-12-07T09:31:51;6.30;99.90
25640;DHT22;13497;48.322;16.204;2022-12-07T09:34:16;6.20;99.90
25640;DHT22;13497;48.322;16.204;2022-12-07T09:36:43;6.10;99.90
25640;DHT22;13497;48.322;16.204;2022-12-07T09:39:08;6.10;99.90
25640;DHT22;13497;48.322;16.204;2022-12-07T09:41:41;6.00;99.90
25640;DHT22;13497;48.322;16.204;2022-12-07T09:44:12;5.90;99.90
25640;DHT22;13497;48.322;16.204;2022-12-07T09:46:40;5.90;99.90
25640;DHT22;13497;48.322;16.204;2022-12-07T09:49:21;5.90;99.90
25640;DHT22;13497;48.322;16.204;2022-12-07T09:54:36;5.80;99.90
25640;DHT22;13497;48.322;16.204;2022-12-07T09:57:05;5.80;99.90
25640;DHT22;13497;48.322;16.204;2022-12-07T09:59:31;5.80;99.90
25640;DHT22;13497;48.322;16.204;2022-12-07T10:02:21;5.80;99.90
25640;DHT22;13497;48.322;16.204;2022-12-07T10:04:48;5.80;99.90
25640;DHT22;13497;48.322;16.204;2022-12-07T10:07:14;5.80;99.90
25640;DHT22;13497;48.322;16.204;2022-12-07T10:09:39;5.80;99.90
25640;DHT22;13497;48.322;16.204;2022-12-07T10:12:10;5.90;99.90
25640;DHT22;13497;48.322;16.204;2022-12-07T10:15:02;5.90;99.90
25640;DHT22;13497;48.322;16.204;2022-12-07T10:17:40;6.00;99.90
25640;DHT22;13497;48.322;16.204;2022-12-07T10:22:37;5.90;99.90
25640;DHT22;13497;48.322;16.204;2022-12-07T10:25:19;5.90;99.90
25640;DHT22;13497;48.322;16.204;2022-12-07T10:27:57;5.90;99.90
25640;DHT22;13497;48.322;16.204;2022-12-07T10:30:23;5.90;99.90
25640;DHT22;13497;48.322;16.204;2022-12-07T10:32:49;6.00;99.90
25640;DHT22;13497;48.322;16.204;2022-12-07T10:35:30;6.10;99.90
25640;DHT22;13497;48.322;16.204;2022-12-07T10:37:58;6.20;99.90
25640;DHT22;13497;48.322;16.204;2022-12-07T10:40:35;6.40;99.90
25640;DHT22;13497;48.322;16.204;2022-12-07T10:43:17;6.40;99.90
25640;DHT22;13497;48.322;16.204;2022-12-07T10:56:53;6.60;99.90
25640;DHT22;13497;48.322;16.204;2022-12-07T11:04:31;6.70;99.90
25640;DHT22;13497;48.322;16.204;2022-12-07T11:07:02;6.70;99.90
25640;DHT22;13497;48.322;16.204;2022-12-07T11:17:51;6.30;99.90
25640;DHT22;13497;48.322;16.204;2022-12-07T11:23:07;6.10;99.90
25640;DHT22;13497;48.322;16.204;2022-12-07T11:25:53;5.90;99.90
25640;DHT22;13497;48.322;16.204;2022-12-07T11:36:48;5.80;99.90
25640;DHT22;13497;48.322;16.204;2022-12-07T11:41:48;5.90;99.90
25640;DHT22;13497;48.322;16.204;2022-12-07T11:46:54;6.00;99.90
25640;DHT22;13497;48.322;16.204;2022-12-07T11:49:31;6.10;99.90
25640;DHT22;13497;48.322;16.204;2022-12-07T11:52:02;6.10;99.90
25640;DHT22;13497;48.322;16.204;2022-12-07T11:54:34;6.20;99.90
25640;DHT22;13497;48.322;16.204;2022-12-07T11:57:05;6.30;99.90
25640;DHT22;13497;48.322;16.204;2022-12-07T11:59:45;6.30;99.90
25640;DHT22;13497;48.322;16.204;2022-12-07T12:02:23;6.30;99.90
25640;DHT22;13497;48.322;16.204;2022-12-07T12:07:34;6.20;99.90
25640;DHT22;13497;48.322;16.204;2022-12-07T12:10:05;6.30;99.90
25640;DHT22;13497;48.322;16.204;2022-12-07T12:15:45;6.30;99.90
25640;DHT22;13497;48.322;16.204;2022-12-07T12:18:23;6.30;99.90
25640;DHT22;13497;48.322;16.204;2022-12-07T12:20:53;6.30;99.90
25640;DHT22;13497;48.322;16.204;2022-12-07T12:23:44;6.30;99.90
25640;DHT22;13497;48.322;16.204;2022-12-07T12:26:18;6.40;99.90
25640;DHT22;13497;48.322;16.204;2022-12-07T12:29:00;6.40;99.90
25640;DHT22;13497;48.322;16.204;2022-12-07T12:34:00;6.50;99.90
25640;DHT22;13497;48.322;16.204;2022-12-07T12:46:53;6.40;99.90
25640;DHT22;13497;48.322;16.204;2022-12-07T12:59:36;6.30;99.90
25640;DHT22;13497;48.322;16.204;2022-12-07T13:02:38;6.20;99.90
25640;DHT22;13497;48.322;16.204;2022-12-07T13:10:38;6.10;99.90
25640;DHT22;13497;48.322;16.204;2022-12-07T13:21:02;6.10;99.90
25640;DHT22;13497;48.322;16.204;2022-12-07T13:23:31;6.10;99.90
25640;DHT22;13497;48.322;16.204;2022-12-07T13:28:47;6.20;99.90
25640;DHT22;13497;48.322;16.204;2022-12-07T13:31:23;6.20;99.90
25640;DHT22;13497;48.322;16.204;2022-12-07T13:33:52;6.20;99.90
25640;DHT22;13497;48.322;16.204;2022-12-07T13:36:19;6.10;99.90
25640;DHT22;13497;48.322;16.204;2022-12-07T13:38:59;6.10;99.90
25640;DHT22;13497;48.322;16.204;2022-12-07T13:41:27;6.00;99.90
25640;DHT22;13497;48.322;16.204;2022-12-07T13:44:00;6.00;99.90
25640;DHT22;13497;48.322;16.204;2022-12-07T13:49:29;5.90;99.90
25640;DHT22;13497;48.322;16.204;2022-12-07T13:52:06;5.90;99.90
25640;DHT22;13497;48.322;16.204;2022-12-07T13:54:32;5.90;99.90
25640;DHT22;13497;48.322;16.204;2022-12-07T13:56:58;5.90;99.90
25640;DHT22;13497;48.322;16.204;2022-12-07T13:59:25;5.90;99.90
25640;DHT22;13497;48.322;16.204;2022-12-07T14:01:53;5.90;99.90
25640;DHT22;13497;48.322;16.204;2022-12-07T14:04:33;5.90;99.90
25640;DHT22;13497;48.322;16.204;2022-12-07T14:07:01;5.90;99.90
25640;DHT22;13497;48.322;16.204;2022-12-07T14:09:28;5.80;99.90
25640;DHT22;13497;48.322;16.204;2022-12-07T14:11:54;5.70;99.90
25640;DHT22;13497;48.322;16.204;2022-12-07T14:14:29;5.70;99.90
25640;DHT22;13497;48.322;16.204;2022-12-07T14:17:08;5.60;99.90
25640;DHT22;13497;48.322;16.204;2022-12-07T14:19:54;5.50;99.90
25640;DHT22;13497;48.322;16.204;2022-12-07T14:22:27;5.50;99.90
25640;DHT22;13497;48.322;16.204;2022-12-07T14:25:19;5.40;99.90
25640;DHT22;13497;48.322;16.204;2022-12-07T14:27:59;5.30;99.90
25640;DHT22;13497;48.322;16.204;2022-12-07T14:30:27;5.20;99.90
25640;DHT22;13497;48.322;16.204;2022-12-07T14:32:57;5.20;99.90
25640;DHT22;13497;48.322;16.204;2022-12-07T14:35:23;5.10;99.90
25640;DHT22;13497;48.322;16.204;2022-12-07T14:37:50;5.20;99.90
25640;DHT22;13497;48.322;16.204;2022-12-07T14:40:19;5.20;99.90
25640;DHT22;13497;48.322;16.204;2022-12-07T14:42:46;5.20;99.90
25640;DHT22;13497;48.322;16.204;2022-12-07T14:45:18;5.30;99.90
25640;DHT22;13497;48.322;16.204;2022-12-07T14:47:45;5.30;99.90
25640;DHT22;13497;48.322;16.204;2022-12-07T14:50:16;5.30;99.90
25640;DHT22;13497;48.322;16.204;2022-12-07T14:52:47;5.30;99.90
25640;DHT22;13497;48.322;16.204;2022-12-07T14:55:27;5.30;99.90
25640;DHT22;13497;48.322;16.204;2022-12-07T14:57:53;5.30;99.90
25640;DHT22;13497;48.322;16.204;2022-12-07T15:00:21;5.30;99.90
25640;DHT22;13497;48.322;16.204;2022-12-07T15:02:48;5.30;99.90
25640;DHT22;13497;48.322;16.204;2022-12-07T15:05:14;5.30;99.90
25640;DHT22;13497;48.322;16.204;2022-12-07T15:07:40;5.30;99.90
25640;DHT22;13497;48.322;16.204;2022-12-07T15:10:10;5.30;99.90
25640;DHT22;13497;48.322;16.204;2022-12-07T15:12:39;5.30;99.90
25640;DHT22;13497;48.322;16.204;2022-12-07T15:15:05;5.30;99.90
25640;DHT22;13497;48.322;16.204;2022-12-07T15:17:30;5.20;99.90
25640;DHT22;13497;48.322;16.204;2022-12-07T15:19:56;5.20;99.90
25640;DHT22;13497;48.322;16.204;2022-12-07T15:22:22;5.30;99.90
25640;DHT22;13497;48.322;16.204;2022-12-07T15:24:47;5.30;99.90
25640;DHT22;13497;48.322;16.204;2022-12-07T15:27:13;5.30;99.90
25640;DHT22;13497;48.322;16.204;2022-12-07T15:29:38;5.30;99.90
25640;DHT22;13497;48.322;16.204;2022-12-07T15:32:04;5.30;99.90
25640;DHT22;13497;48.322;16.204;2022-12-07T15:34:30;5.30;99.90
25640;DHT22;13497;48.322;16.204;2022-12-07T15:36:58;5.30;99.90
25640;DHT22;13497;48.322;16.204;2022-12-07T15:39:24;5.30;99.90
25640;DHT22;13497;48.322;16.204;2022-12-07T15:41:49;5.30;99.90
25640;DHT22;13497;48.322;16.204;2022-12-07T15:44:15;5.30;99.90
25640;DHT22;13497;48.322;16.204;2022-12-07T15:47:00;5.30;99.90
25640;DHT22;13497;48.322;16.204;2022-12-07T15:49:27;5.20;99.90
25640;DHT22;13497;48.322;16.204;2022-12-07T15:51:53;5.20;99.90
25640;DHT22;13497;48.322;16.204;2022-12-07T15:54:24;5.20;99.90
25640;DHT22;13497;48.322;16.204;2022-12-07T15:56:50;5.20;99.90
25640;DHT22;13497;48.322;16.204;2022-12-07T15:59:16;5.10;99.90
25640;DHT22;13497;48.322;16.204;2022-12-07T16:01:42;5.10;99.90
25640;DHT22;13497;48.322;16.204;2022-12-07T16:04:08;5.10;99.90
25640;DHT22;13497;48.322;16.204;2022-12-07T16:06:33;5.10;99.90
25640;DHT22;13497;48.322;16.204;2022-12-07T16:08:59;5.10;99.90
25640;DHT22;13497;48.322;16.204;2022-12-07T16:11:25;5.10;99.90
25640;DHT22;13497;48.322;16.204;2022-12-07T16:13:51;5.10;99.90
25640;DHT22;13497;48.322;16.204;2022-12-07T16:16:19;5.10;99.90
25640;DHT22;13497;48.322;16.204;2022-12-07T16:18:46;5.10;99.90
25640;DHT22;13497;48.322;16.204;2022-12-07T16:21:13;5.00;99.90
25640;DHT22;13497;48.322;16.204;2022-12-07T16:23:39;5.00;99.90
25640;DHT22;13497;48.322;16.204;2022-12-07T16:26:11;5.00;99.90
25640;DHT22;13497;48.322;16.204;2022-12-07T16:28:37;4.90;99.90
25640;DHT22;13497;48.322;16.204;2022-12-07T16:31:04;4.80;99.90
25640;DHT22;13497;48.322;16.204;2022-12-07T16:33:33;4.80;99.90
25640;DHT22;13497;48.322;16.204;2022-12-07T16:35:59;4.70;99.90
25640;DHT22;13497;48.322;16.204;2022-12-07T16:38:25;4.80;99.90
25640;DHT22;13497;48.322;16.204;2022-12-07T16:40:51;4.70;99.90
25640;DHT22;13497;48.322;16.204;2022-12-07T16:43:17;4.60;99.90
25640;DHT22;13497;48.322;16.204;2022-12-07T16:45:42;4.60;99.90
25640;DHT22;13497;48.322;16.204;2022-12-07T16:48:08;4.60;99.90
25640;DHT22;13497;48.322;16.204;2022-12-07T16:50:34;4.50;99.90
25640;DHT22;13497;48.322;16.204;2022-12-07T16:52:59;4.60;99.90
25640;DHT22;13497;48.322;16.204;2022-12-07T16:55:25;4.60;99.90
25640;DHT22;13497;48.322;16.204;2022-12-07T16:57:50;4.60;99.90
25640;DHT22;13497;48.322;16.204;2022-12-07T17:00:16;4.60;99.90
25640;DHT22;13497;48.322;16.204;2022-12-07T17:02:42;4.60;99.90
25640;DHT22;13497;48.322;16.204;2022-12-07T17:05:08;4.60;99.90
25640;DHT22;13497;48.322;16.204;2022-12-07T17:07:33;4.60;99.90
25640;DHT22;13497;48.322;16.204;2022-12-07T17:09:59;4.70;99.90
25640;DHT22;13497;48.322;16.204;2022-12-07T17:12:25;4.70;99.90
25640;DHT22;13497;48.322;16.204;2022-12-07T17:14:51;4.60;99.90
25640;DHT22;13497;48.322;16.204;2022-12-07T17:17:35;4.60;99.90
25640;DHT22;13497;48.322;16.204;2022-12-07T17:20:01;4.60;99.90
25640;DHT22;13497;48.322;16.204;2022-12-07T17:22:27;4.50;99.90
25640;DHT22;13497;48.322;16.204;2022-12-07T17:24:52;4.60;99.90
25640;DHT22;13497;48.322;16.204;2022-12-07T17:27:18;4.50;99.90
25640;DHT22;13497;48.322;16.204;2022-12-07T17:29:44;4.50;99.90
25640;DHT22;13497;48.322;16.204;2022-12-07T17:32:09;4.60;99.90
25640;DHT22;13497;48.322;16.204;2022-12-07T17:34:35;4.60;99.90
25640;DHT22;13497;48.322;16.204;2022-12-07T17:37:02;4.60;99.90
25640;DHT22;13497;48.322;16.204;2022-12-07T17:39:27;4.60;99.90
25640;DHT22;13497;48.322;16.204;2022-12-07T17:41:54;4.60;99.90
25640;DHT22;13497;48.322;16.204;2022-12-07T17:44:38;4.70;99.90
25640;DHT22;13497;48.322;16.204;2022-12-07T17:47:03;4.70;99.90
25640;DHT22;13497;48.322;16.204;2022-12-07T17:49:30;4.60;99.90